sensor_id;sensor_type;location;lat;lon;timestamp;temperature;humidity
8709;DHT22;4391;48.678;9.280;2024-02-15T00:02:08;10.60;1.00
8709;DHT22;4391;48.678;9.280;2024-02-15T00:04:35;10.50;1.00
8709;DHT22;4391;48.678;9.280;2024-02-15T00:07:04;10.40;1.00
8709;DHT22;4391;48.678;9.280;2024-02-15T00:09:31;10.30;1.00
8709;DHT22;4391;48.678;9.280;2024-02-15T00:11:58;10.20;1.00
8709;DHT22;4391;48.678;9.280;2024-02-15T00:14:25;10.10;1.00
8709;DHT22;4391;48.678;9.280;2024-02-15T00:16:53;10.00;6.80
8709;DHT22;4391;48.678;9.280;2024-02-15T00:19:20;9.90;20.10
8709;DHT22;4391;48.678;9.280;2024-02-15T00:21:47;9.80;29.30
8709;DHT22;4391;48.678;9.280;2024-02-15T00:24:15;9.90;36.10
8709;DHT22;4391;48.678;9.280;2024-02-15T00:26:42;9.90;33.10
8709;DHT22;4391;48.678;9.280;2024-02-15T00:29:09;10.00;22.10
8709;DHT22;4391;48.678;9.280;2024-02-15T00:31:36;10.00;17.90
8709;DHT22;4391;48.678;9.280;2024-02-15T00:34:03;10.10;13.50
8709;DHT22;4391;48.678;9.280;2024-02-15T00:36:31;10.10;12.10
8709;DHT22;4391;48.678;9.280;2024-02-15T00:38:58;10.10;12.10
8709;DHT22;4391;48.678;9.280;2024-02-15T00:41:27;10.10;11.30
8709;DHT22;4391;48.678;9.280;2024-02-15T00:43:54;10.20;4.40
8709;DHT22;4391;48.678;9.280;2024-02-15T00:46:21;10.30;1.00
8709;DHT22;4391;48.678;9.280;2024-02-15T00:48:48;10.30;1.00
8709;DHT22;4391;48.678;9.280;2024-02-15T00:51:15;10.30;1.00
8709;DHT22;4391;48.678;9.280;2024-02-15T00:53:41;10.40;1.00
8709;DHT22;4391;48.678;9.280;2024-02-15T00:56:08;10.30;1.00
8709;DHT22;4391;48.678;9.280;2024-02-15T00:58:36;10.40;1.00
8709;DHT22;4391;48.678;9.280;2024-02-15T01:01:03;10.50;1.00
8709;DHT22;4391;48.678;9.280;2024-02-15T01:03:30;10.50;1.00
8709;DHT22;4391;48.678;9.280;2024-02-15T01:05:57;10.60;1.00
8709;DHT22;4391;48.678;9.280;2024-02-15T01:08:24;10.60;1.00
8709;DHT22;4391;48.678;9.280;2024-02-15T01:10:51;10.60;1.00
8709;DHT22;4391;48.678;9.280;2024-02-15T01:13:19;10.60;1.00
8709;DHT22;4391;48.678;9.280;2024-02-15T01:15:47;10.60;1.00
8709;DHT22;4391;48.678;9.280;2024-02-15T01:18:14;10.60;1.00
8709;DHT22;4391;48.678;9.280;2024-02-15T01:20:41;10.60;1.00
8709;DHT22;4391;48.678;9.280;2024-02-15T01:23:07;10.40;1.00
8709;DHT22;4391;48.678;9.280;2024-02-15T01:25:34;10.40;1.00
8709;DHT22;4391;48.678;9.280;2024-02-15T01:28:01;10.40;1.00
8709;DHT22;4391;48.678;9.280;2024-02-15T01:30:29;10.30;1.00
8709;DHT22;4391;48.678;9.280;2024-02-15T01:32:58;10.30;1.00
8709;DHT22;4391;48.678;9.280;2024-02-15T01:35:27;10.20;1.00
8709;DHT22;4391;48.678;9.280;2024-02-15T01:37:54;10.10;1.00
8709;DHT22;4391;48.678;9.280;2024-02-15T01:40:21;10.10;1.00
8709;DHT22;4391;48.678;9.280;2024-02-15T01:42:47;10.10;1.00
8709;DHT22;4391;48.678;9.280;2024-02-15T01:45:15;10.20;1.00
8709;DHT22;4391;48.678;9.280;2024-02-15T01:47:42;10.30;1.00
8709;DHT22;4391;48.678;9.280;2024-02-15T01:50:12;10.20;1.00
8709;DHT22;4391;48.678;9.280;2024-02-15T01:52:40;10.30;1.00
8709;DHT22;4391;48.678;9.280;2024-02-15T01:55:08;10.30;1.00
8709;DHT22;4391;48.678;9.280;2024-02-15T01:57:36;10.20;1.00
8709;DHT22;4391;48.678;9.280;2024-02-15T02:00:05;10.10;1.00
8709;DHT22;4391;48.678;9.280;2024-02-15T02:02:35;10.00;1.00
8709;DHT22;4391;48.678;9.280;2024-02-15T02:05:04;9.80;1.00
8709;DHT22;4391;48.678;9.280;2024-02-15T02:07:33;9.60;1.00
8709;DHT22;4391;48.678;9.280;2024-02-15T02:10:01;9.40;1.00
8709;DHT22;4391;48.678;9.280;2024-02-15T02:12:28;9.10;1.00
8709;DHT22;4391;48.678;9.280;2024-02-15T02:14:55;8.80;25.40
8709;DHT22;4391;48.678;9.280;2024-02-15T02:17:22;8.60;46.50
8709;DHT22;4391;48.678;9.280;2024-02-15T02:19:49;8.50;75.90
8709;DHT22;4391;48.678;9.280;2024-02-15T02:22:16;8.30;94.00
8709;DHT22;4391;48.678;9.280;2024-02-15T02:24:58;8.10;99.00
8709;DHT22;4391;48.678;9.280;2024-02-15T02:27:27;8.00;99.90
8709;DHT22;4391;48.678;9.280;2024-02-15T02:29:54;7.90;99.90
8709;DHT22;4391;48.678;9.280;2024-02-15T02:32:21;7.90;99.90
8709;DHT22;4391;48.678;9.280;2024-02-15T02:34:48;7.90;99.90
8709;DHT22;4391;48.678;9.280;2024-02-15T02:37:15;7.90;99.90
8709;DHT22;4391;48.678;9.280;2024-02-15T02:39:42;7.90;99.90
8709;DHT22;4391;48.678;9.280;2024-02-15T02:42:11;8.00;99.90
8709;DHT22;4391;48.678;9.280;2024-02-15T02:44:38;8.00;99.90
8709;DHT22;4391;48.678;9.280;2024-02-15T02:47:05;8.00;99.90
8709;DHT22;4391;48.678;9.280;2024-02-15T02:49:32;8.00;99.90
8709;DHT22;4391;48.678;9.280;2024-02-15T02:51:59;7.80;99.90
8709;DHT22;4391;48.678;9.280;2024-02-15T02:54:26;7.70;99.90
8709;DHT22;4391;48.678;9.280;2024-02-15T02:56:57;7.70;99.90
8709;DHT22;4391;48.678;9.280;2024-02-15T02:59:25;7.70;99.90
8709;DHT22;4391;48.678;9.280;2024-02-15T03:01:52;7.70;99.90
8709;DHT22;4391;48.678;9.280;2024-02-15T03:04:22;7.60;99.90
8709;DHT22;4391;48.678;9.280;2024-02-15T03:06:48;7.40;99.90
8709;DHT22;4391;48.678;9.280;2024-02-15T03:09:17;7.30;99.90
8709;DHT22;4391;48.678;9.280;2024-02-15T03:11:46;7.10;99.90
8709;DHT22;4391;48.678;9.280;2024-02-15T03:14:13;6.90;99.90
8709;DHT22;4391;48.678;9.280;2024-02-15T03:16:41;6.70;99.90
8709;DHT22;4391;48.678;9.280;2024-02-15T03:19:08;6.70;99.90
8709;DHT22;4391;48.678;9.280;2024-02-15T03:21:37;6.60;99.90
8709;DHT22;4391;48.678;9.280;2024-02-15T03:24:04;6.70;99.90
8709;DHT22;4391;48.678;9.280;2024-02-15T03:26:32;6.80;99.90
8709;DHT22;4391;48.678;9.280;2024-02-15T03:29:02;6.70;99.90
8709;DHT22;4391;48.678;9.280;2024-02-15T03:31:29;6.70;99.90
8709;DHT22;4391;48.678;9.280;2024-02-15T03:33:57;6.50;99.90
8709;DHT22;4391;48.678;9.280;2024-02-15T03:36:25;6.40;99.90
8709;DHT22;4391;48.678;9.280;2024-02-15T03:38:52;6.30;99.90
8709;DHT22;4391;48.678;9.280;2024-02-15T03:41:19;6.20;99.90
8709;DHT22;4391;48.678;9.280;2024-02-15T03:43:46;6.10;99.90
8709;DHT22;4391;48.678;9.280;2024-02-15T03:46:13;6.00;99.90
8709;DHT22;4391;48.678;9.280;2024-02-15T03:48:42;5.80;99.90
8709;DHT22;4391;48.678;9.280;2024-02-15T03:51:18;5.80;99.90
8709;DHT22;4391;48.678;9.280;2024-02-15T03:53:45;5.70;99.90
8709;DHT22;4391;48.678;9.280;2024-02-15T03:56:13;5.60;99.90
8709;DHT22;4391;48.678;9.280;2024-02-15T03:58:40;5.50;99.90
8709;DHT22;4391;48.678;9.280;2024-02-15T04:01:06;5.50;99.90
8709;DHT22;4391;48.678;9.280;2024-02-15T04:03:35;5.50;99.90
8709;DHT22;4391;48.678;9.280;2024-02-15T04:06:02;5.40;99.90
8709;DHT22;4391;48.678;9.280;2024-02-15T04:08:31;5.40;99.90
8709;DHT22;4391;48.678;9.280;2024-02-15T04:10:59;5.30;99.90
8709;DHT22;4391;48.678;9.280;2024-02-15T04:13:25;5.40;99.90
8709;DHT22;4391;48.678;9.280;2024-02-15T04:15:52;5.50;99.90
8709;DHT22;4391;48.678;9.280;2024-02-15T04:18:19;5.60;99.90
8709;DHT22;4391;48.678;9.280;2024-02-15T04:20:46;5.70;99.90
8709;DHT22;4391;48.678;9.280;2024-02-15T04:23:14;5.80;99.90
8709;DHT22;4391;48.678;9.280;2024-02-15T04:25:42;5.90;99.90
8709;DHT22;4391;48.678;9.280;2024-02-15T04:28:16;6.00;99.90
8709;DHT22;4391;48.678;9.280;2024-02-15T04:30:43;6.10;99.90
8709;DHT22;4391;48.678;9.280;2024-02-15T04:33:12;6.10;99.90
8709;DHT22;4391;48.678;9.280;2024-02-15T04:35:41;6.20;99.90
8709;DHT22;4391;48.678;9.280;2024-02-15T04:38:07;6.40;99.90
8709;DHT22;4391;48.678;9.280;2024-02-15T04:40:35;6.40;99.90
8709;DHT22;4391;48.678;9.280;2024-02-15T04:43:05;6.40;99.90
8709;DHT22;4391;48.678;9.280;2024-02-15T04:45:32;6.50;99.90
8709;DHT22;4391;48.678;9.280;2024-02-15T04:47:59;6.50;99.90
8709;DHT22;4391;48.678;9.280;2024-02-15T04:50:27;6.60;99.90
8709;DHT22;4391;48.678;9.280;2024-02-15T04:52:55;6.60;99.90
8709;DHT22;4391;48.678;9.280;2024-02-15T04:55:22;6.60;99.90
8709;DHT22;4391;48.678;9.280;2024-02-15T04:57:49;6.60;99.90
8709;DHT22;4391;48.678;9.280;2024-02-15T05:00:22;6.60;99.90
8709;DHT22;4391;48.678;9.280;2024-02-15T05:02:51;6.70;99.90
8709;DHT22;4391;48.678;9.280;2024-02-15T05:05:18;6.70;99.90
8709;DHT22;4391;48.678;9.280;2024-02-15T05:07:46;6.70;99.90
8709;DHT22;4391;48.678;9.280;2024-02-15T05:10:14;6.80;99.90
8709;DHT22;4391;48.678;9.280;2024-02-15T05:12:41;6.70;99.90
8709;DHT22;4391;48.678;9.280;2024-02-15T05:15:09;6.70;99.90
8709;DHT22;4391;48.678;9.280;2024-02-15T05:17:38;6.70;99.90
8709;DHT22;4391;48.678;9.280;2024-02-15T05:20:08;6.70;99.90
8709;DHT22;4391;48.678;9.280;2024-02-15T05:22:38;6.70;99.90
8709;DHT22;4391;48.678;9.280;2024-02-15T05:25:06;6.70;99.90
8709;DHT22;4391;48.678;9.280;2024-02-15T05:27:34;6.70;99.90
8709;DHT22;4391;48.678;9.280;2024-02-15T05:30:03;6.70;99.90
8709;DHT22;4391;48.678;9.280;2024-02-15T05:32:33;6.70;99.90
8709;DHT22;4391;48.678;9.280;2024-02-15T05:35:08;6.70;99.90
8709;DHT22;4391;48.678;9.280;2024-02-15T05:37:36;6.70;99.90
8709;DHT22;4391;48.678;9.280;2024-02-15T05:40:03;6.70;99.90
8709;DHT22;4391;48.678;9.280;2024-02-15T05:42:30;6.60;99.90
8709;DHT22;4391;48.678;9.280;2024-02-15T05:45:27;6.60;99.90
8709;DHT22;4391;48.678;9.280;2024-02-15T05:47:55;6.60;99.90
8709;DHT22;4391;48.678;9.280;2024-02-15T05:50:23;6.70;99.90
8709;DHT22;4391;48.678;9.280;2024-02-15T05:52:53;6.70;99.90
8709;DHT22;4391;48.678;9.280;2024-02-15T05:55:20;6.70;99.90
8709;DHT22;4391;48.678;9.280;2024-02-15T05:57:47;6.70;99.90
8709;DHT22;4391;48.678;9.280;2024-02-15T06:00:15;6.60;99.90
8709;DHT22;4391;48.678;9.280;2024-02-15T06:02:44;6.60;99.90
8709;DHT22;4391;48.678;9.280;2024-02-15T06:05:11;6.50;99.90
8709;DHT22;4391;48.678;9.280;2024-02-15T06:07:39;6.30;99.90
8709;DHT22;4391;48.678;9.280;2024-02-15T06:10:07;6.20;99.90
8709;DHT22;4391;48.678;9.280;2024-02-15T06:12:34;6.10;99.90
8709;DHT22;4391;48.678;9.280;2024-02-15T06:15:03;6.00;99.90
8709;DHT22;4391;48.678;9.280;2024-02-15T06:17:30;5.90;99.90
8709;DHT22;4391;48.678;9.280;2024-02-15T06:19:57;6.00;99.90
8709;DHT22;4391;48.678;9.280;2024-02-15T06:22:24;6.00;99.90
8709;DHT22;4391;48.678;9.280;2024-02-15T06:24:53;6.00;99.90
8709;DHT22;4391;48.678;9.280;2024-02-15T06:27:20;6.00;99.90
8709;DHT22;4391;48.678;9.280;2024-02-15T06:29:49;5.90;99.90
8709;DHT22;4391;48.678;9.280;2024-02-15T06:32:34;5.90;99.90
8709;DHT22;4391;48.678;9.280;2024-02-15T06:35:18;5.90;99.90
8709;DHT22;4391;48.678;9.280;2024-02-15T06:38:02;6.00;99.90
8709;DHT22;4391;48.678;9.280;2024-02-15T06:40:48;5.90;99.90
8709;DHT22;4391;48.678;9.280;2024-02-15T06:43:15;5.90;99.90
8709;DHT22;4391;48.678;9.280;2024-02-15T06:45:41;5.90;99.90
8709;DHT22;4391;48.678;9.280;2024-02-15T06:48:12;5.80;99.90
8709;DHT22;4391;48.678;9.280;2024-02-15T06:50:38;5.80;99.90
8709;DHT22;4391;48.678;9.280;2024-02-15T06:53:05;5.80;99.90
8709;DHT22;4391;48.678;9.280;2024-02-15T06:55:34;5.70;99.90
8709;DHT22;4391;48.678;9.280;2024-02-15T06:58:03;5.70;99.90
8709;DHT22;4391;48.678;9.280;2024-02-15T07:00:34;5.80;99.90
8709;DHT22;4391;48.678;9.280;2024-02-15T07:03:01;5.80;99.90
8709;DHT22;4391;48.678;9.280;2024-02-15T07:05:30;5.90;99.90
8709;DHT22;4391;48.678;9.280;2024-02-15T07:07:56;6.10;99.90
8709;DHT22;4391;48.678;9.280;2024-02-15T07:10:23;6.10;99.90
8709;DHT22;4391;48.678;9.280;2024-02-15T07:12:51;6.20;99.90
8709;DHT22;4391;48.678;9.280;2024-02-15T07:15:19;6.20;99.90
8709;DHT22;4391;48.678;9.280;2024-02-15T07:17:46;6.30;99.90
8709;DHT22;4391;48.678;9.280;2024-02-15T07:20:13;6.40;99.90
8709;DHT22;4391;48.678;9.280;2024-02-15T07:22:42;6.50;99.90
8709;DHT22;4391;48.678;9.280;2024-02-15T07:25:11;6.70;99.90
8709;DHT22;4391;48.678;9.280;2024-02-15T07:27:38;6.90;99.90
8709;DHT22;4391;48.678;9.280;2024-02-15T07:30:06;7.20;99.90
8709;DHT22;4391;48.678;9.280;2024-02-15T07:32:35;7.30;99.90
8709;DHT22;4391;48.678;9.280;2024-02-15T07:35:02;7.60;99.90
8709;DHT22;4391;48.678;9.280;2024-02-15T07:37:30;7.90;99.90
8709;DHT22;4391;48.678;9.280;2024-02-15T07:39:58;8.20;93.20
8709;DHT22;4391;48.678;9.280;2024-02-15T07:42:25;8.40;54.40
8709;DHT22;4391;48.678;9.280;2024-02-15T07:44:52;8.60;34.50
8709;DHT22;4391;48.678;9.280;2024-02-15T07:47:19;8.90;15.40
8709;DHT22;4391;48.678;9.280;2024-02-15T07:49:51;9.10;1.00
8709;DHT22;4391;48.678;9.280;2024-02-15T07:52:18;9.50;1.00
8709;DHT22;4391;48.678;9.280;2024-02-15T07:54:45;9.80;1.00
8709;DHT22;4391;48.678;9.280;2024-02-15T07:57:12;10.00;1.00
8709;DHT22;4391;48.678;9.280;2024-02-15T07:59:39;10.20;99.90
8709;DHT22;4391;48.678;9.280;2024-02-15T08:02:07;10.40;99.90
8709;DHT22;4391;48.678;9.280;2024-02-15T08:04:34;10.60;99.90
8709;DHT22;4391;48.678;9.280;2024-02-15T08:07:07;10.80;92.50
8709;DHT22;4391;48.678;9.280;2024-02-15T08:09:37;11.10;1.00
8709;DHT22;4391;48.678;9.280;2024-02-15T08:12:04;11.40;1.00
8709;DHT22;4391;48.678;9.280;2024-02-15T08:14:31;11.70;1.00
8709;DHT22;4391;48.678;9.280;2024-02-15T08:16:57;12.00;92.70
8709;DHT22;4391;48.678;9.280;2024-02-15T08:19:24;12.00;99.90
8709;DHT22;4391;48.678;9.280;2024-02-15T08:21:54;12.10;8.70
8709;DHT22;4391;48.678;9.280;2024-02-15T08:24:23;12.30;1.00
8709;DHT22;4391;48.678;9.280;2024-02-15T08:26:50;12.50;99.90
8709;DHT22;4391;48.678;9.280;2024-02-15T08:29:18;12.70;99.90
8709;DHT22;4391;48.678;9.280;2024-02-15T08:31:45;12.80;13.80
8709;DHT22;4391;48.678;9.280;2024-02-15T08:34:12;12.70;99.90
8709;DHT22;4391;48.678;9.280;2024-02-15T08:36:40;12.70;99.90
8709;DHT22;4391;48.678;9.280;2024-02-15T08:39:07;12.60;1.00
8709;DHT22;4391;48.678;9.280;2024-02-15T08:41:38;12.70;99.90
8709;DHT22;4391;48.678;9.280;2024-02-15T08:44:05;12.80;1.00
8709;DHT22;4391;48.678;9.280;2024-02-15T08:46:37;12.90;1.00
8709;DHT22;4391;48.678;9.280;2024-02-15T08:49:04;13.20;40.60
8709;DHT22;4391;48.678;9.280;2024-02-15T08:51:30;13.20;99.90
8709;DHT22;4391;48.678;9.280;2024-02-15T08:53:58;13.20;99.90
8709;DHT22;4391;48.678;9.280;2024-02-15T08:56:25;13.30;99.90
8709;DHT22;4391;48.678;9.280;2024-02-15T08:58:53;13.20;99.90
8709;DHT22;4391;48.678;9.280;2024-02-15T09:01:20;13.10;99.90
8709;DHT22;4391;48.678;9.280;2024-02-15T09:03:48;12.90;99.90
8709;DHT22;4391;48.678;9.280;2024-02-15T09:06:14;12.80;99.90
8709;DHT22;4391;48.678;9.280;2024-02-15T09:08:41;12.90;1.00
8709;DHT22;4391;48.678;9.280;2024-02-15T09:11:08;12.90;1.00
8709;DHT22;4391;48.678;9.280;2024-02-15T09:13:37;13.20;99.90
8709;DHT22;4391;48.678;9.280;2024-02-15T09:16:06;13.40;1.00
8709;DHT22;4391;48.678;9.280;2024-02-15T09:18:33;13.50;1.00
8709;DHT22;4391;48.678;9.280;2024-02-15T09:21:00;13.80;99.90
8709;DHT22;4391;48.678;9.280;2024-02-15T09:23:27;14.20;99.90
8709;DHT22;4391;48.678;9.280;2024-02-15T09:25:54;14.60;99.90
8709;DHT22;4391;48.678;9.280;2024-02-15T09:28:21;14.80;99.90
8709;DHT22;4391;48.678;9.280;2024-02-15T09:30:49;15.10;99.90
8709;DHT22;4391;48.678;9.280;2024-02-15T09:33:19;15.40;19.80
8709;DHT22;4391;48.678;9.280;2024-02-15T09:35:46;15.60;1.00
8709;DHT22;4391;48.678;9.280;2024-02-15T09:38:13;15.90;1.00
8709;DHT22;4391;48.678;9.280;2024-02-15T09:40:42;16.20;1.00
8709;DHT22;4391;48.678;9.280;2024-02-15T09:43:10;16.40;1.00
8709;DHT22;4391;48.678;9.280;2024-02-15T09:45:39;16.80;1.00
8709;DHT22;4391;48.678;9.280;2024-02-15T09:48:06;17.00;1.00
8709;DHT22;4391;48.678;9.280;2024-02-15T09:50:38;17.10;1.00
8709;DHT22;4391;48.678;9.280;2024-02-15T09:53:09;17.30;1.00
8709;DHT22;4391;48.678;9.280;2024-02-15T09:55:36;17.60;1.00
8709;DHT22;4391;48.678;9.280;2024-02-15T09:58:03;17.80;1.00
8709;DHT22;4391;48.678;9.280;2024-02-15T10:00:31;17.70;1.00
8709;DHT22;4391;48.678;9.280;2024-02-15T10:03:00;18.10;1.00
8709;DHT22;4391;48.678;9.280;2024-02-15T10:05:29;18.30;1.00
8709;DHT22;4391;48.678;9.280;2024-02-15T10:07:58;18.60;1.00
8709;DHT22;4391;48.678;9.280;2024-02-15T10:10:27;19.10;1.00
8709;DHT22;4391;48.678;9.280;2024-02-15T10:12:54;19.50;1.00
8709;DHT22;4391;48.678;9.280;2024-02-15T10:15:29;19.90;1.00
8709;DHT22;4391;48.678;9.280;2024-02-15T10:17:57;20.00;99.90
8709;DHT22;4391;48.678;9.280;2024-02-15T10:20:25;20.30;99.90
8709;DHT22;4391;48.678;9.280;2024-02-15T10:22:53;20.60;99.90
8709;DHT22;4391;48.678;9.280;2024-02-15T10:25:22;20.60;99.90
8709;DHT22;4391;48.678;9.280;2024-02-15T10:27:49;20.80;99.90
8709;DHT22;4391;48.678;9.280;2024-02-15T10:30:18;21.20;99.90
8709;DHT22;4391;48.678;9.280;2024-02-15T10:32:45;21.80;99.90
8709;DHT22;4391;48.678;9.280;2024-02-15T10:35:23;22.40;99.90
8709;DHT22;4391;48.678;9.280;2024-02-15T10:37:50;22.90;99.90
8709;DHT22;4391;48.678;9.280;2024-02-15T10:40:27;23.10;99.90
8709;DHT22;4391;48.678;9.280;2024-02-15T10:42:54;23.30;99.90
8709;DHT22;4391;48.678;9.280;2024-02-15T10:45:25;23.60;99.90
8709;DHT22;4391;48.678;9.280;2024-02-15T10:47:52;24.20;99.90
8709;DHT22;4391;48.678;9.280;2024-02-15T10:50:19;24.50;99.90
8709;DHT22;4391;48.678;9.280;2024-02-15T10:52:54;25.30;99.90
8709;DHT22;4391;48.678;9.280;2024-02-15T10:55:34;25.70;99.90
8709;DHT22;4391;48.678;9.280;2024-02-15T10:58:05;26.30;99.90
8709;DHT22;4391;48.678;9.280;2024-02-15T11:00:33;26.70;99.90
8709;DHT22;4391;48.678;9.280;2024-02-15T11:03:03;27.20;99.90
8709;DHT22;4391;48.678;9.280;2024-02-15T11:05:32;27.30;99.90
8709;DHT22;4391;48.678;9.280;2024-02-15T11:08:02;27.50;99.90
8709;DHT22;4391;48.678;9.280;2024-02-15T11:10:31;27.60;99.90
8709;DHT22;4391;48.678;9.280;2024-02-15T11:12:59;28.10;99.90
8709;DHT22;4391;48.678;9.280;2024-02-15T11:15:50;27.90;99.90
8709;DHT22;4391;48.678;9.280;2024-02-15T11:18:41;27.90;99.90
8709;DHT22;4391;48.678;9.280;2024-02-15T11:21:08;28.30;99.90
8709;DHT22;4391;48.678;9.280;2024-02-15T11:23:35;28.40;99.90
8709;DHT22;4391;48.678;9.280;2024-02-15T11:26:04;29.00;99.90
8709;DHT22;4391;48.678;9.280;2024-02-15T11:28:37;29.50;99.90
8709;DHT22;4391;48.678;9.280;2024-02-15T11:31:08;29.80;99.90
8709;DHT22;4391;48.678;9.280;2024-02-15T11:33:35;29.50;99.90
8709;DHT22;4391;48.678;9.280;2024-02-15T11:36:05;29.80;99.90
8709;DHT22;4391;48.678;9.280;2024-02-15T11:38:32;30.60;99.90
8709;DHT22;4391;48.678;9.280;2024-02-15T11:41:04;30.20;99.90
8709;DHT22;4391;48.678;9.280;2024-02-15T11:43:56;29.70;99.90
8709;DHT22;4391;48.678;9.280;2024-02-15T11:46:24;29.70;99.90
8709;DHT22;4391;48.678;9.280;2024-02-15T11:48:54;29.90;99.90
8709;DHT22;4391;48.678;9.280;2024-02-15T11:51:26;29.90;99.90
8709;DHT22;4391;48.678;9.280;2024-02-15T11:54:03;29.60;99.90
8709;DHT22;4391;48.678;9.280;2024-02-15T11:56:53;29.20;99.90
8709;DHT22;4391;48.678;9.280;2024-02-15T11:59:30;28.60;99.90
8709;DHT22;4391;48.678;9.280;2024-02-15T12:02:08;28.30;99.90
8709;DHT22;4391;48.678;9.280;2024-02-15T12:04:52;27.50;99.90
8709;DHT22;4391;48.678;9.280;2024-02-15T12:07:37;27.40;99.90
8709;DHT22;4391;48.678;9.280;2024-02-15T12:10:21;28.10;99.90
8709;DHT22;4391;48.678;9.280;2024-02-15T12:13:07;28.30;99.90
8709;DHT22;4391;48.678;9.280;2024-02-15T12:15:58;28.20;99.90
8709;DHT22;4391;48.678;9.280;2024-02-15T12:18:43;28.20;99.90
8709;DHT22;4391;48.678;9.280;2024-02-15T12:21:14;27.40;99.90
8709;DHT22;4391;48.678;9.280;2024-02-15T12:23:42;27.20;99.90
8709;DHT22;4391;48.678;9.280;2024-02-15T12:26:09;27.50;99.90
8709;DHT22;4391;48.678;9.280;2024-02-15T12:28:37;27.90;99.90
8709;DHT22;4391;48.678;9.280;2024-02-15T12:31:04;27.90;99.90
8709;DHT22;4391;48.678;9.280;2024-02-15T12:33:33;27.20;99.90
8709;DHT22;4391;48.678;9.280;2024-02-15T12:36:04;26.90;99.90
8709;DHT22;4391;48.678;9.280;2024-02-15T12:38:32;26.90;99.90
8709;DHT22;4391;48.678;9.280;2024-02-15T12:40:59;26.40;99.90
8709;DHT22;4391;48.678;9.280;2024-02-15T12:43:27;25.60;99.90
8709;DHT22;4391;48.678;9.280;2024-02-15T12:45:56;25.10;99.90
8709;DHT22;4391;48.678;9.280;2024-02-15T12:48:23;24.60;99.90
8709;DHT22;4391;48.678;9.280;2024-02-15T12:50:50;24.30;99.90
8709;DHT22;4391;48.678;9.280;2024-02-15T12:53:21;24.60;99.90
8709;DHT22;4391;48.678;9.280;2024-02-15T12:55:53;24.70;99.90
8709;DHT22;4391;48.678;9.280;2024-02-15T12:58:21;24.70;99.90
8709;DHT22;4391;48.678;9.280;2024-02-15T13:00:50;24.60;99.90
8709;DHT22;4391;48.678;9.280;2024-02-15T13:03:22;24.70;99.90
8709;DHT22;4391;48.678;9.280;2024-02-15T13:05:49;24.50;99.90
8709;DHT22;4391;48.678;9.280;2024-02-15T13:08:17;24.50;99.90
8709;DHT22;4391;48.678;9.280;2024-02-15T13:10:45;24.80;99.90
8709;DHT22;4391;48.678;9.280;2024-02-15T13:13:12;24.90;99.90
8709;DHT22;4391;48.678;9.280;2024-02-15T13:15:41;24.80;99.90
8709;DHT22;4391;48.678;9.280;2024-02-15T13:18:09;24.30;99.90
8709;DHT22;4391;48.678;9.280;2024-02-15T13:20:38;24.30;99.90
8709;DHT22;4391;48.678;9.280;2024-02-15T13:23:05;24.30;99.90
8709;DHT22;4391;48.678;9.280;2024-02-15T13:25:35;24.00;99.90
8709;DHT22;4391;48.678;9.280;2024-02-15T13:28:03;23.70;99.90
8709;DHT22;4391;48.678;9.280;2024-02-15T13:30:31;23.20;99.90
8709;DHT22;4391;48.678;9.280;2024-02-15T13:32:58;22.60;99.90
8709;DHT22;4391;48.678;9.280;2024-02-15T13:35:25;22.10;99.90
8709;DHT22;4391;48.678;9.280;2024-02-15T13:37:54;21.70;99.90
8709;DHT22;4391;48.678;9.280;2024-02-15T13:40:23;21.50;99.90
8709;DHT22;4391;48.678;9.280;2024-02-15T13:42:52;21.00;99.90
8709;DHT22;4391;48.678;9.280;2024-02-15T13:45:20;20.70;99.90
8709;DHT22;4391;48.678;9.280;2024-02-15T13:47:49;20.40;99.90
8709;DHT22;4391;48.678;9.280;2024-02-15T13:50:19;20.30;99.90
8709;DHT22;4391;48.678;9.280;2024-02-15T13:52:46;20.20;99.90
8709;DHT22;4391;48.678;9.280;2024-02-15T13:55:15;20.00;99.90
8709;DHT22;4391;48.678;9.280;2024-02-15T13:57:45;19.90;99.90
8709;DHT22;4391;48.678;9.280;2024-02-15T14:00:13;19.80;99.90
8709;DHT22;4391;48.678;9.280;2024-02-15T14:02:47;19.60;99.90
8709;DHT22;4391;48.678;9.280;2024-02-15T14:05:14;19.50;99.90
8709;DHT22;4391;48.678;9.280;2024-02-15T14:07:46;19.50;99.90
8709;DHT22;4391;48.678;9.280;2024-02-15T14:10:14;19.60;99.90
8709;DHT22;4391;48.678;9.280;2024-02-15T14:12:43;19.90;99.90
8709;DHT22;4391;48.678;9.280;2024-02-15T14:15:10;20.00;99.90
8709;DHT22;4391;48.678;9.280;2024-02-15T14:17:37;20.20;99.90
8709;DHT22;4391;48.678;9.280;2024-02-15T14:20:05;20.20;99.90
8709;DHT22;4391;48.678;9.280;2024-02-15T14:22:34;20.30;99.90
8709;DHT22;4391;48.678;9.280;2024-02-15T14:25:01;20.20;99.90
8709;DHT22;4391;48.678;9.280;2024-02-15T14:27:31;20.30;99.90
8709;DHT22;4391;48.678;9.280;2024-02-15T14:29:58;20.30;99.90
8709;DHT22;4391;48.678;9.280;2024-02-15T14:32:44;20.40;99.90
8709;DHT22;4391;48.678;9.280;2024-02-15T14:35:30;20.50;99.90
8709;DHT22;4391;48.678;9.280;2024-02-15T14:37:59;20.60;99.90
8709;DHT22;4391;48.678;9.280;2024-02-15T14:40:28;20.70;99.90
8709;DHT22;4391;48.678;9.280;2024-02-15T14:42:56;20.70;99.90
8709;DHT22;4391;48.678;9.280;2024-02-15T14:45:23;20.90;99.90
8709;DHT22;4391;48.678;9.280;2024-02-15T14:47:50;20.90;99.90
8709;DHT22;4391;48.678;9.280;2024-02-15T14:50:17;21.10;99.90
8709;DHT22;4391;48.678;9.280;2024-02-15T14:52:46;21.30;99.90
8709;DHT22;4391;48.678;9.280;2024-02-15T14:55:13;21.50;99.90
8709;DHT22;4391;48.678;9.280;2024-02-15T14:57:40;21.90;99.90
8709;DHT22;4391;48.678;9.280;2024-02-15T15:00:09;22.20;99.90
8709;DHT22;4391;48.678;9.280;2024-02-15T15:02:39;22.50;99.90
8709;DHT22;4391;48.678;9.280;2024-02-15T15:05:07;22.80;99.90
8709;DHT22;4391;48.678;9.280;2024-02-15T15:07:52;23.10;99.90
8709;DHT22;4391;48.678;9.280;2024-02-15T15:10:36;23.10;99.90
8709;DHT22;4391;48.678;9.280;2024-02-15T15:13:20;23.10;99.90
8709;DHT22;4391;48.678;9.280;2024-02-15T15:15:50;23.10;99.90
8709;DHT22;4391;48.678;9.280;2024-02-15T15:18:16;22.90;99.90
8709;DHT22;4391;48.678;9.280;2024-02-15T15:20:44;22.80;99.90
8709;DHT22;4391;48.678;9.280;2024-02-15T15:23:11;22.40;99.90
8709;DHT22;4391;48.678;9.280;2024-02-15T15:25:39;22.10;99.90
8709;DHT22;4391;48.678;9.280;2024-02-15T15:28:06;21.70;99.90
8709;DHT22;4391;48.678;9.280;2024-02-15T15:30:33;21.20;99.90
8709;DHT22;4391;48.678;9.280;2024-02-15T15:33:03;20.80;99.90
8709;DHT22;4391;48.678;9.280;2024-02-15T15:35:30;20.30;99.90
8709;DHT22;4391;48.678;9.280;2024-02-15T15:37:57;19.80;99.90
8709;DHT22;4391;48.678;9.280;2024-02-15T15:40:24;19.50;99.90
8709;DHT22;4391;48.678;9.280;2024-02-15T15:42:51;19.10;99.90
8709;DHT22;4391;48.678;9.280;2024-02-15T15:45:20;18.70;99.90
8709;DHT22;4391;48.678;9.280;2024-02-15T15:47:47;18.40;99.90
8709;DHT22;4391;48.678;9.280;2024-02-15T15:50:15;18.10;99.90
8709;DHT22;4391;48.678;9.280;2024-02-15T15:52:42;17.90;99.90
8709;DHT22;4391;48.678;9.280;2024-02-15T15:55:10;17.70;99.90
8709;DHT22;4391;48.678;9.280;2024-02-15T15:57:38;17.50;99.90
8709;DHT22;4391;48.678;9.280;2024-02-15T16:00:06;17.30;99.90
8709;DHT22;4391;48.678;9.280;2024-02-15T16:02:38;17.00;99.90
8709;DHT22;4391;48.678;9.280;2024-02-15T16:05:05;16.80;99.90
8709;DHT22;4391;48.678;9.280;2024-02-15T16:07:34;16.60;99.90
8709;DHT22;4391;48.678;9.280;2024-02-15T16:10:01;16.40;99.90
8709;DHT22;4391;48.678;9.280;2024-02-15T16:12:28;16.30;99.90
8709;DHT22;4391;48.678;9.280;2024-02-15T16:14:55;16.00;99.90
8709;DHT22;4391;48.678;9.280;2024-02-15T16:17:22;15.90;99.90
8709;DHT22;4391;48.678;9.280;2024-02-15T16:19:49;15.70;99.90
8709;DHT22;4391;48.678;9.280;2024-02-15T16:22:16;15.60;99.90